createdAt,value
2023-02-15T00:00:26.985Z,70.10
2023-02-15T00:02:55.249Z,60.97
2023-02-15T00:05:25.003Z,60.15
2023-02-15T00:07:53.379Z,67.30
2023-02-15T00:10:21.659Z,65.55
2023-02-15T00:12:49.958Z,53.90
2023-02-15T00:15:18.416Z,67.20
2023-02-15T00:17:46.800Z,63.35
2023-02-15T00:20:15.139Z,69.05
2023-02-15T00:22:44.750Z,82.55
2023-02-15T00:25:12.980Z,79.50
2023-02-15T00:27:41.242Z,80.00
2023-02-15T00:30:10.838Z,77.43
2023-02-15T00:32:39.168Z,96.97
2023-02-15T00:35:08.331Z,86.63
2023-02-15T00:37:36.710Z,110.57
2023-02-15T00:40:08.812Z,89.13
2023-02-15T00:42:37.197Z,107.50
2023-02-15T00:45:06.176Z,83.13
2023-02-15T00:47:34.589Z,93.00
2023-02-15T00:50:04.112Z,93.75
2023-02-15T00:52:32.383Z,96.72
2023-02-15T00:55:00.643Z,106.68
2023-02-15T00:57:30.292Z,108.55
2023-02-15T00:59:58.623Z,107.60
2023-02-15T01:02:26.883Z,105.28
2023-02-15T01:04:55.254Z,100.93
2023-02-15T01:07:24.558Z,102.15
2023-02-15T01:09:54.386Z,101.65
2023-02-15T01:12:22.676Z,96.57
2023-02-15T01:14:52.276Z,101.65
2023-02-15T01:17:21.554Z,103.07
2023-02-15T01:19:49.780Z,94.97
2023-02-15T01:22:18.249Z,94.60
2023-02-15T01:24:46.778Z,99.30
2023-02-15T01:27:15.078Z,96.90
2023-02-15T01:29:43.330Z,99.18
2023-02-15T01:32:13.059Z,93.30
2023-02-15T01:34:44.387Z,100.50
2023-02-15T01:37:12.700Z,96.40
2023-02-15T01:39:40.979Z,97.43
2023-02-15T01:42:12.652Z,91.55
2023-02-15T01:45:01.116Z,98.18
2023-02-15T01:47:39.297Z,98.75
2023-02-15T01:50:14.947Z,105.28
2023-02-15T01:52:51.259Z,102.32
2023-02-15T01:55:20.385Z,98.15
2023-02-15T01:57:49.014Z,96.25
2023-02-15T02:00:18.754Z,96.60
2023-02-15T02:02:56.202Z,86.85
2023-02-15T02:05:27.816Z,94.43
2023-02-15T02:08:00.441Z,86.10
2023-02-15T02:10:29.269Z,85.93
2023-02-15T02:13:02.443Z,87.68
2023-02-15T02:15:45.597Z,90.95
2023-02-15T02:18:29.399Z,81.93
2023-02-15T02:21:42.978Z,81.97
2023-02-15T02:25:00.752Z,87.82
2023-02-15T02:27:38.587Z,79.63
2023-02-15T02:30:53.310Z,86.22
2023-02-15T02:33:57.486Z,91.65
2023-02-15T02:36:37.200Z,86.45
2023-02-15T02:39:24.630Z,93.00
2023-02-15T02:42:03.471Z,93.55
2023-02-15T02:44:37.479Z,92.22
2023-02-15T02:47:13.861Z,98.13
2023-02-15T02:49:45.188Z,97.85
2023-02-15T02:52:40.829Z,95.45
2023-02-15T02:55:16.379Z,95.03
2023-02-15T02:57:54.732Z,97.78
2023-02-15T03:00:26.430Z,89.68
2023-02-15T03:03:00.433Z,85.35
2023-02-15T03:05:32.021Z,72.60
2023-02-15T03:08:06.906Z,78.65
2023-02-15T03:10:37.932Z,80.63
2023-02-15T03:13:07.403Z,69.20
2023-02-15T03:15:56.754Z,68.40
2023-02-15T03:18:29.794Z,62.95
2023-02-15T03:21:02.225Z,64.35
2023-02-15T03:23:31.287Z,66.22
2023-02-15T03:26:05.533Z,76.88
2023-02-15T03:28:42.008Z,72.97
2023-02-15T03:31:12.568Z,82.90
2023-02-15T03:36:22.664Z,84.50
2023-02-15T03:39:01.572Z,94.57
2023-02-15T03:41:36.820Z,83.10
2023-02-15T03:44:10.362Z,79.07
2023-02-15T03:46:47.540Z,78.15
2023-02-15T03:49:23.479Z,92.80
2023-02-15T03:51:57.764Z,98.20
2023-02-15T03:54:48.001Z,93.72
2023-02-15T03:57:37.870Z,97.70
2023-02-15T04:00:31.840Z,96.13
2023-02-15T04:03:23.367Z,98.65
2023-02-15T04:05:52.033Z,94.53
2023-02-15T04:08:41.840Z,96.50
2023-02-15T04:11:09.227Z,96.03
2023-02-15T04:13:37.624Z,97.65
2023-02-15T04:16:06.384Z,91.07
2023-02-15T04:18:56.576Z,90.47
2023-02-15T04:21:44.598Z,83.20
2023-02-15T04:24:33.374Z,81.07
2023-02-15T04:27:03.353Z,80.78
2023-02-15T04:29:32.391Z,85.93
2023-02-15T04:32:02.453Z,85.60
2023-02-15T04:34:30.905Z,87.05
2023-02-15T04:36:59.330Z,90.50
2023-02-15T04:39:29.165Z,96.15
2023-02-15T04:41:57.623Z,90.57
2023-02-15T04:44:26.103Z,89.07
2023-02-15T04:46:54.592Z,89.63
2023-02-15T04:49:23.019Z,92.15
2023-02-15T04:51:51.428Z,84.28
2023-02-15T04:54:19.845Z,96.38
2023-02-15T04:56:49.859Z,94.72
2023-02-15T04:59:18.379Z,93.10
2023-02-15T05:01:46.931Z,94.32
2023-02-15T05:04:15.477Z,94.40
2023-02-15T05:06:44.023Z,96.55
2023-02-15T05:09:13.465Z,98.15
2023-02-15T05:11:44.612Z,98.43
2023-02-15T05:14:14.762Z,98.18
2023-02-15T05:16:43.887Z,103.70
2023-02-15T05:19:12.802Z,108.63
2023-02-15T05:21:41.360Z,106.47
2023-02-15T05:24:23.721Z,103.80
2023-02-15T05:27:09.724Z,109.60
2023-02-15T05:29:39.549Z,105.07
2023-02-15T05:32:08.277Z,104.43
2023-02-15T05:34:36.795Z,104.45
2023-02-15T05:37:05.172Z,102.75
2023-02-15T05:39:36.621Z,99.30
2023-02-15T05:42:05.288Z,98.57
2023-02-15T05:44:33.700Z,101.85
2023-02-15T05:47:04.117Z,94.35
2023-02-15T05:49:32.854Z,97.93
2023-02-15T05:52:01.186Z,92.90
2023-02-15T05:54:30.500Z,93.72
2023-02-15T05:56:58.881Z,96.35
2023-02-15T05:59:27.607Z,103.50
2023-02-15T06:01:56.199Z,97.45
2023-02-15T06:04:26.154Z,98.25
2023-02-15T06:06:54.594Z,95.50
2023-02-15T06:09:23.014Z,107.05
2023-02-15T06:11:51.651Z,99.40
2023-02-15T06:14:20.131Z,111.82
2023-02-15T06:16:48.902Z,107.63
2023-02-15T06:19:17.988Z,103.25
2023-02-15T06:21:47.829Z,111.28
2023-02-15T06:24:16.357Z,101.72
2023-02-15T06:26:44.863Z,106.22
2023-02-15T06:29:14.873Z,113.82
2023-02-15T06:31:43.415Z,117.28
2023-02-15T06:34:11.965Z,112.55
2023-02-15T06:36:40.485Z,106.95
2023-02-15T06:39:10.932Z,116.28
2023-02-15T06:41:39.442Z,108.63
2023-02-15T06:44:08.058Z,105.40
2023-02-15T06:46:36.653Z,114.88
2023-02-15T06:49:05.304Z,106.60
2023-02-15T06:51:34.984Z,105.97
2023-02-15T06:54:03.532Z,104.50
2023-02-15T06:56:33.882Z,105.45
2023-02-15T06:59:02.437Z,107.43
2023-02-15T07:01:30.958Z,100.30
2023-02-15T07:03:59.347Z,107.55
2023-02-15T07:06:27.752Z,106.55
2023-02-15T07:08:56.407Z,106.00
2023-02-15T07:11:42.582Z,106.85
2023-02-15T07:14:12.506Z,106.33
2023-02-15T07:16:41.151Z,108.43
2023-02-15T07:19:09.664Z,111.38
2023-02-15T07:21:38.769Z,104.35
2023-02-15T07:24:08.203Z,108.57
2023-02-15T07:26:36.606Z,112.25
2023-02-15T07:29:05.439Z,109.15
2023-02-15T07:31:36.467Z,112.45
2023-02-15T07:34:04.955Z,112.38
2023-02-15T07:36:33.317Z,101.55
2023-02-15T07:39:01.739Z,106.40
2023-02-15T07:41:30.329Z,104.15
2023-02-15T07:43:58.709Z,106.95
2023-02-15T07:46:27.191Z,103.57
2023-02-15T07:48:57.377Z,102.47
2023-02-15T07:51:25.880Z,111.25
2023-02-15T07:53:54.454Z,106.43
2023-02-15T07:56:22.890Z,107.60
2023-02-15T07:58:54.264Z,99.72
2023-02-15T08:01:26.010Z,111.57
2023-02-15T08:03:56.679Z,114.72
2023-02-15T08:06:28.356Z,106.20
2023-02-15T08:08:57.139Z,102.25
2023-02-15T08:11:29.946Z,103.43
2023-02-15T08:14:01.301Z,100.93
2023-02-15T08:16:34.278Z,107.82
2023-02-15T08:19:08.895Z,102.25
2023-02-15T08:21:42.748Z,104.57
2023-02-15T08:24:13.621Z,101.07
2023-02-15T08:26:43.829Z,93.43
2023-02-15T08:29:13.073Z,100.18
2023-02-15T08:31:42.770Z,102.65
2023-02-15T08:34:15.488Z,100.00
2023-02-15T08:36:46.131Z,98.57
2023-02-15T08:41:47.138Z,98.80
2023-02-15T08:44:18.448Z,94.90
2023-02-15T08:46:49.296Z,95.32
2023-02-15T08:49:22.856Z,94.30
2023-02-15T08:51:52.294Z,93.35
2023-02-15T08:54:22.912Z,87.18
2023-02-15T08:59:22.903Z,87.05
2023-02-15T09:01:53.564Z,85.25
2023-02-15T09:06:52.620Z,84.22
2023-02-15T09:09:22.025Z,81.30
2023-02-15T09:11:57.763Z,84.13
2023-02-15T09:14:28.539Z,85.20
2023-02-15T09:16:57.308Z,77.88
2023-02-15T09:19:27.291Z,78.32
2023-02-15T09:21:56.080Z,81.95
2023-02-15T09:24:24.708Z,77.82
2023-02-15T09:26:56.231Z,84.25
2023-02-15T09:29:25.302Z,82.93
2023-02-15T09:31:54.670Z,92.10
2023-02-15T09:34:24.703Z,89.93
2023-02-15T09:36:54.700Z,90.00
2023-02-15T09:39:25.760Z,94.65
2023-02-15T09:42:34.240Z,86.40
2023-02-15T09:45:29.912Z,93.00
2023-02-15T09:48:42.992Z,94.72
2023-02-15T09:51:45.320Z,93.75
2023-02-15T09:54:38.553Z,91.40
2023-02-15T09:57:13.776Z,93.25
2023-02-15T09:59:53.239Z,83.75
2023-02-15T10:02:40.557Z,89.40
2023-02-15T10:05:24.250Z,87.30
2023-02-15T10:08:25.011Z,86.03
2023-02-15T10:11:25.556Z,80.65
2023-02-15T10:14:11.763Z,88.68
2023-02-15T10:16:52.932Z,79.03
2023-02-15T10:19:35.619Z,83.18
2023-02-15T10:22:20.076Z,85.93
2023-02-15T10:25:22.516Z,85.28
2023-02-15T10:27:52.680Z,79.50
2023-02-15T10:30:32.665Z,85.68
2023-02-15T10:33:05.509Z,83.95
2023-02-15T10:35:47.505Z,78.50
2023-02-15T10:38:27.002Z,85.07
2023-02-15T10:41:12.288Z,80.47
2023-02-15T10:44:09.637Z,84.28
2023-02-15T10:46:59.354Z,80.10
2023-02-15T10:50:17.972Z,79.97
2023-02-15T10:53:05.904Z,83.20
2023-02-15T10:55:52.352Z,77.03
2023-02-15T10:58:37.755Z,78.45
2023-02-15T11:01:16.037Z,75.90
2023-02-15T11:04:12.510Z,80.82
2023-02-15T11:06:49.313Z,81.57
2023-02-15T11:09:21.755Z,76.97
2023-02-15T11:11:56.674Z,75.28
2023-02-15T11:14:38.017Z,77.97
2023-02-15T11:17:12.879Z,73.55
2023-02-15T11:19:48.690Z,75.10
2023-02-15T11:22:18.176Z,75.57
2023-02-15T11:24:49.485Z,74.40
2023-02-15T11:27:24.449Z,75.95
2023-02-15T11:30:02.232Z,75.55
2023-02-15T11:32:36.137Z,78.47
2023-02-15T11:35:13.736Z,73.82
2023-02-15T11:37:48.235Z,73.25
2023-02-15T11:40:25.796Z,72.97
2023-02-15T11:43:02.179Z,70.30
2023-02-15T11:45:32.784Z,75.68
2023-02-15T11:48:04.187Z,71.68
2023-02-15T11:50:35.255Z,75.10
2023-02-15T11:53:07.399Z,69.45
2023-02-15T11:55:36.112Z,74.65
2023-02-15T11:58:14.041Z,73.97
2023-02-15T12:00:45.089Z,69.68
2023-02-15T12:03:24.391Z,70.47
2023-02-15T12:06:00.732Z,69.97
2023-02-15T12:08:40.394Z,72.95
2023-02-15T12:11:14.131Z,69.75
2023-02-15T12:13:58.334Z,68.40
2023-02-15T12:16:28.295Z,68.78
2023-02-15T12:19:01.836Z,74.45
2023-02-15T12:21:33.852Z,73.57
2023-02-15T12:24:12.632Z,68.20
2023-02-15T12:26:41.212Z,72.47
2023-02-15T12:29:18.314Z,69.05
2023-02-15T12:31:50.084Z,73.95
2023-02-15T12:34:27.536Z,67.60
2023-02-15T12:36:59.905Z,75.63
2023-02-15T12:39:30.558Z,67.40
2023-02-15T12:44:33.983Z,68.85
2023-02-15T12:47:05.847Z,68.47
2023-02-15T12:49:37.903Z,67.78
2023-02-15T12:52:13.259Z,71.10
2023-02-15T12:54:44.032Z,76.75
2023-02-15T12:59:52.988Z,67.60
2023-02-15T13:05:19.537Z,68.68
2023-02-15T13:07:51.456Z,76.70
2023-02-15T13:10:31.223Z,72.25
2023-02-15T13:13:00.462Z,71.97
2023-02-15T13:15:38.037Z,73.57
2023-02-15T13:18:13.342Z,79.30
2023-02-15T13:20:46.196Z,72.82
2023-02-15T13:23:29.242Z,70.57
2023-02-15T13:26:01.213Z,71.03
2023-02-15T13:28:40.878Z,75.45
2023-02-15T13:31:16.476Z,76.20
2023-02-15T13:33:48.898Z,77.10
2023-02-15T13:36:26.269Z,75.55
2023-02-15T13:39:11.760Z,75.53
2023-02-15T13:41:56.689Z,73.65
2023-02-15T13:45:00.106Z,72.78
2023-02-15T13:47:36.249Z,71.75
2023-02-15T13:50:33.888Z,70.28
2023-02-15T13:53:26.895Z,74.68
2023-02-15T13:56:02.001Z,75.82
2023-02-15T13:58:55.245Z,74.55
2023-02-15T14:01:36.986Z,75.22
2023-02-15T14:04:46.571Z,75.38
2023-02-15T14:07:46.758Z,73.13
2023-02-15T14:10:34.557Z,71.93
2023-02-15T14:13:49.601Z,74.20
2023-02-15T14:16:25.261Z,75.47
2023-02-15T14:19:03.786Z,75.00
2023-02-15T14:21:37.819Z,71.85
2023-02-15T14:24:30.522Z,71.65
2023-02-15T14:27:12.998Z,67.47
2023-02-15T14:29:53.966Z,73.97
2023-02-15T14:32:30.919Z,71.32
2023-02-15T14:35:01.962Z,74.32
2023-02-15T14:37:49.083Z,78.55
2023-02-15T14:40:50.277Z,69.90
2023-02-15T14:43:32.389Z,71.97
2023-02-15T14:46:10.612Z,72.50
2023-02-15T14:48:44.227Z,73.28
2023-02-15T14:51:28.991Z,72.90
2023-02-15T14:53:57.527Z,69.82
2023-02-15T14:56:28.718Z,72.45
2023-02-15T14:59:22.965Z,68.50
2023-02-15T15:01:59.841Z,71.72
2023-02-15T15:04:35.444Z,67.72
2023-02-15T15:07:11.930Z,71.15
2023-02-15T15:09:43.235Z,74.07
2023-02-15T15:12:41.148Z,75.55
2023-02-15T15:15:16.035Z,76.85
2023-02-15T15:18:01.068Z,75.40
2023-02-15T15:20:46.673Z,74.50
2023-02-15T15:23:46.980Z,77.72
2023-02-15T15:26:29.667Z,71.05
2023-02-15T15:29:01.877Z,76.00
2023-02-15T15:31:48.483Z,79.80
2023-02-15T15:34:52.103Z,73.00
2023-02-15T15:37:59.059Z,76.07
2023-02-15T15:40:50.966Z,71.55
2023-02-15T15:44:30.731Z,76.82
2023-02-15T15:47:22.379Z,74.88
2023-02-15T15:49:50.922Z,69.88
2023-02-15T15:52:22.788Z,76.75
2023-02-15T15:54:58.583Z,79.15
2023-02-15T15:57:32.010Z,77.30
2023-02-15T16:00:00.973Z,71.47
2023-02-15T16:02:31.016Z,74.90
2023-02-15T16:05:10.175Z,79.07
2023-02-15T16:07:38.878Z,82.28
2023-02-15T16:10:22.456Z,79.35
2023-02-15T16:12:52.473Z,82.85
2023-02-15T16:15:26.254Z,73.20
2023-02-15T16:17:58.516Z,82.43
2023-02-15T16:20:29.528Z,77.78
2023-02-15T16:23:22.621Z,79.13
2023-02-15T16:26:03.612Z,75.47
2023-02-15T16:28:32.323Z,72.13
2023-02-15T16:31:12.824Z,75.97
2023-02-15T16:33:46.047Z,77.15
2023-02-15T16:36:23.138Z,77.35
2023-02-15T16:39:20.060Z,77.90
2023-02-15T16:41:50.486Z,73.15
2023-02-15T16:44:21.692Z,80.88
2023-02-15T16:46:54.926Z,73.05
2023-02-15T16:49:28.283Z,76.18
2023-02-15T16:52:01.191Z,73.22
2023-02-15T16:54:32.205Z,74.72
2023-02-15T16:57:01.134Z,78.82
2023-02-15T16:59:37.134Z,79.80
2023-02-15T17:02:08.131Z,80.05
2023-02-15T17:04:40.181Z,84.63
2023-02-15T17:07:18.572Z,75.90
2023-02-15T17:09:55.446Z,80.97
2023-02-15T17:12:47.147Z,72.80
2023-02-15T17:15:31.179Z,73.45
2023-02-15T17:18:05.679Z,71.63
2023-02-15T17:20:37.445Z,66.68
2023-02-15T17:23:06.681Z,69.28
2023-02-15T17:25:41.058Z,66.40
2023-02-15T17:28:19.900Z,69.38
2023-02-15T17:30:49.519Z,70.18
2023-02-15T17:33:30.086Z,69.30
2023-02-15T17:36:10.764Z,63.75
2023-02-15T17:38:40.228Z,66.70
2023-02-15T17:41:09.846Z,64.68
2023-02-15T17:43:38.556Z,64.27
2023-02-15T17:46:07.168Z,61.20
2023-02-15T17:48:38.760Z,66.57
2023-02-15T17:51:14.609Z,65.80
2023-02-15T17:54:04.631Z,65.18
2023-02-15T17:56:32.183Z,61.25
2023-02-15T17:59:00.777Z,64.78
2023-02-15T18:01:47.048Z,61.80
2023-02-15T18:04:34.641Z,61.28
2023-02-15T18:07:22.317Z,58.33
2023-02-15T18:10:08.161Z,59.22
2023-02-15T18:12:42.062Z,60.67
2023-02-15T18:15:13.141Z,61.33
2023-02-15T18:17:44.947Z,57.78
2023-02-15T18:20:21.483Z,60.78
2023-02-15T18:22:52.802Z,61.75
2023-02-15T18:25:25.771Z,58.80
2023-02-15T18:27:55.517Z,56.70
2023-02-15T18:30:27.335Z,56.45
2023-02-15T18:32:59.803Z,65.85
2023-02-15T18:35:32.538Z,60.42
2023-02-15T18:38:03.171Z,58.63
2023-02-15T18:40:32.899Z,59.45
2023-02-15T18:43:01.480Z,65.68
2023-02-15T18:45:33.504Z,62.03
2023-02-15T18:48:02.416Z,60.03
2023-02-15T18:50:35.570Z,56.83
2023-02-15T18:53:08.134Z,65.72
2023-02-15T18:55:36.681Z,64.43
2023-02-15T18:58:05.363Z,58.38
2023-02-15T19:00:37.892Z,60.05
2023-02-15T19:03:06.586Z,59.13
2023-02-15T19:05:35.427Z,64.97
2023-02-15T19:08:06.087Z,62.92
2023-02-15T19:13:03.447Z,61.38
2023-02-15T19:15:32.278Z,62.00
2023-02-15T19:18:00.775Z,66.40
2023-02-15T19:20:33.708Z,60.65
2023-02-15T19:23:04.695Z,65.18
2023-02-15T19:25:38.081Z,69.63
2023-02-15T19:28:17.038Z,68.68
2023-02-15T19:30:45.965Z,67.57
2023-02-15T19:33:18.942Z,66.40
2023-02-15T19:35:52.615Z,69.32
2023-02-15T19:38:26.557Z,69.38
2023-02-15T19:41:04.431Z,69.57
2023-02-15T19:43:33.241Z,68.63
2023-02-15T19:46:02.133Z,73.72
2023-02-15T19:48:30.909Z,67.30
2023-02-15T19:50:59.878Z,75.60
2023-02-15T19:53:30.820Z,70.55
2023-02-15T19:55:59.231Z,76.18
2023-02-15T19:58:27.906Z,72.50
2023-02-15T20:00:56.404Z,69.25
2023-02-15T20:03:24.862Z,69.32
2023-02-15T20:05:53.507Z,73.65
2023-02-15T20:08:23.944Z,74.13
2023-02-15T20:10:54.208Z,71.40
2023-02-15T20:13:23.930Z,67.25
2023-02-15T20:15:53.327Z,72.13
2023-02-15T20:18:22.798Z,71.30
2023-02-15T20:20:53.778Z,73.75
2023-02-15T20:26:02.250Z,70.07
2023-02-15T20:28:33.189Z,73.25
2023-02-15T20:31:02.309Z,69.22
2023-02-15T20:33:31.740Z,70.53
2023-02-15T20:36:01.050Z,69.25
2023-02-15T20:38:32.569Z,78.80
2023-02-15T20:41:21.316Z,77.97
2023-02-15T20:43:49.737Z,75.50
2023-02-15T20:46:18.183Z,74.38
2023-02-15T20:48:47.070Z,77.63
2023-02-15T20:51:19.758Z,69.78
2023-02-15T20:53:49.107Z,75.05
2023-02-15T20:56:23.466Z,75.85
2023-02-15T20:58:55.163Z,73.63
2023-02-15T21:01:23.695Z,83.93
2023-02-15T21:03:52.122Z,73.30
2023-02-15T21:06:20.680Z,71.15
2023-02-15T21:08:49.332Z,76.32
2023-02-15T21:11:21.934Z,74.35
2023-02-15T21:13:51.778Z,80.43
2023-02-15T21:16:20.616Z,78.45
2023-02-15T21:18:49.334Z,75.80
2023-02-15T21:21:24.603Z,77.70
2023-02-15T21:23:54.498Z,75.82
2023-02-15T21:26:25.034Z,72.88
2023-02-15T21:31:24.833Z,82.32
2023-02-15T21:33:53.663Z,76.13
2023-02-15T21:36:24.912Z,81.88
2023-02-15T21:38:54.107Z,84.05
2023-02-15T21:41:43.467Z,83.88
2023-02-15T21:44:37.753Z,80.90
2023-02-15T21:47:24.606Z,83.28
2023-02-15T21:49:53.174Z,82.85
2023-02-15T21:52:24.041Z,81.10
2023-02-15T21:54:52.586Z,79.18
2023-02-15T21:57:22.612Z,78.35
2023-02-15T21:59:51.293Z,80.95
2023-02-15T22:02:29.313Z,81.65
2023-02-15T22:04:59.515Z,78.65
2023-02-15T22:07:27.919Z,83.38
2023-02-15T22:09:56.332Z,79.75
2023-02-15T22:12:26.276Z,84.80
2023-02-15T22:14:55.517Z,87.68
2023-02-15T22:17:28.198Z,86.18
2023-02-15T22:19:57.775Z,84.13
2023-02-15T22:22:26.194Z,84.57
2023-02-15T22:24:54.647Z,83.47
2023-02-15T22:27:27.428Z,84.20
2023-02-15T22:29:56.891Z,85.70
2023-02-15T22:32:27.928Z,87.70
2023-02-15T22:34:57.047Z,84.20
2023-02-15T22:37:25.354Z,86.38
2023-02-15T22:39:54.118Z,83.35
2023-02-15T22:42:28.677Z,82.28
2023-02-15T22:44:58.548Z,84.88
2023-02-15T22:47:32.171Z,84.50
2023-02-15T22:50:01.024Z,84.88
2023-02-15T22:52:29.524Z,86.80
2023-02-15T22:54:57.949Z,86.30
2023-02-15T22:57:31.910Z,85.35
2023-02-15T23:00:01.310Z,87.05
2023-02-15T23:02:30.118Z,81.25
2023-02-15T23:04:58.595Z,90.63
2023-02-15T23:07:27.081Z,86.88
2023-02-15T23:09:55.466Z,86.03
2023-02-15T23:12:28.688Z,86.03
2023-02-15T23:14:58.409Z,86.60
2023-02-15T23:17:27.085Z,88.13
2023-02-15T23:19:55.517Z,86.72
2023-02-15T23:22:24.238Z,88.88
2023-02-15T23:24:54.523Z,86.45
2023-02-15T23:27:52.136Z,89.43
2023-02-15T23:30:22.232Z,92.30
2023-02-15T23:32:57.589Z,95.25
2023-02-15T23:35:26.130Z,89.90
2023-02-15T23:37:54.533Z,86.25
2023-02-15T23:40:40.987Z,86.25
2023-02-15T23:43:20.676Z,87.63
2023-02-15T23:45:50.650Z,92.28
2023-02-15T23:48:31.795Z,92.32
2023-02-15T23:51:01.264Z,90.50
2023-02-15T23:53:29.987Z,86.22
2023-02-15T23:55:59.180Z,91.57
2023-02-15T23:58:36.576Z,92.78
